createdAt,value
2018-12-02T00:00:19.464Z,10.05
2018-12-02T00:02:47.534Z,10.08
2018-12-02T00:05:15.802Z,9.50
2018-12-02T00:07:43.841Z,9.67
2018-12-02T00:10:12.810Z,10.41
2018-12-02T00:12:40.848Z,10.34
2018-12-02T00:15:12.924Z,10.08
2018-12-02T00:17:40.949Z,9.50
2018-12-02T00:20:12.015Z,10.06
2018-12-02T00:22:40.198Z,9.70
2018-12-02T00:25:13.968Z,9.87
2018-12-02T00:27:43.121Z,9.91
2018-12-02T00:30:13.150Z,9.08
2018-12-02T00:32:41.289Z,9.83
2018-12-02T00:35:11.711Z,9.83
2018-12-02T00:37:40.042Z,9.81
2018-12-02T00:40:13.077Z,10.56
2018-12-02T00:42:41.728Z,9.02
2018-12-02T00:45:11.829Z,9.88
2018-12-02T00:47:40.201Z,10.05
2018-12-02T00:50:11.304Z,10.51
2018-12-02T00:52:39.552Z,9.74
2018-12-02T00:55:10.265Z,9.64
2018-12-02T00:57:38.285Z,10.15
2018-12-02T01:00:12.751Z,10.30
2018-12-02T01:02:40.836Z,10.15
2018-12-02T01:05:13.774Z,9.88
2018-12-02T01:07:41.820Z,10.12
2018-12-02T01:10:13.257Z,9.92
2018-12-02T01:12:41.311Z,9.73
2018-12-02T01:15:13.350Z,9.62
2018-12-02T01:17:41.401Z,10.20
2018-12-02T01:20:12.500Z,9.90
2018-12-02T01:22:40.562Z,10.46
2018-12-02T01:25:09.678Z,9.61
2018-12-02T01:27:37.709Z,9.88
2018-12-02T01:30:09.950Z,9.43
2018-12-02T01:32:37.994Z,10.01
2018-12-02T01:35:06.131Z,10.22
2018-12-02T01:37:34.191Z,9.82
2018-12-02T01:40:02.461Z,10.05
2018-12-02T01:42:30.505Z,9.97
2018-12-02T01:44:58.543Z,9.78
2018-12-02T01:47:26.569Z,9.32
2018-12-02T01:49:54.586Z,9.62
2018-12-02T01:52:22.662Z,10.20
2018-12-02T01:54:50.669Z,9.43
2018-12-02T01:57:18.703Z,10.11
2018-12-02T01:59:46.733Z,10.14
2018-12-02T02:02:14.762Z,10.70
2018-12-02T02:04:42.866Z,9.67
2018-12-02T02:07:10.858Z,9.74
2018-12-02T02:09:38.889Z,10.18
2018-12-02T02:12:06.931Z,10.15
2018-12-02T02:14:34.997Z,10.00
2018-12-02T02:17:03.046Z,9.99
2018-12-02T02:19:31.313Z,10.24
2018-12-02T02:21:59.355Z,10.36
2018-12-02T02:24:27.406Z,10.46
2018-12-02T02:26:55.418Z,10.63
2018-12-02T02:29:23.440Z,10.20
2018-12-02T02:31:51.521Z,10.76
2018-12-02T02:34:19.551Z,10.04
2018-12-02T02:36:47.608Z,10.30
2018-12-02T02:39:15.649Z,10.69
2018-12-02T02:41:43.686Z,11.75
2018-12-02T02:44:11.717Z,10.85
2018-12-02T02:46:39.768Z,11.63
2018-12-02T02:49:07.797Z,10.84
2018-12-02T02:51:35.888Z,10.69
2018-12-02T02:54:03.941Z,10.34
2018-12-02T02:56:31.979Z,10.16
2018-12-02T02:59:00.006Z,10.63
2018-12-02T03:01:28.041Z,10.72
2018-12-02T03:03:56.068Z,9.83
2018-12-02T03:06:24.191Z,10.21
2018-12-02T03:08:52.261Z,10.15
2018-12-02T03:11:20.325Z,10.41
2018-12-02T03:13:48.343Z,9.63
2018-12-02T03:16:16.405Z,9.76
2018-12-02T03:18:44.431Z,9.64
2018-12-02T03:21:12.450Z,9.60
2018-12-02T03:23:40.482Z,9.87
2018-12-02T03:26:08.506Z,9.43
2018-12-02T03:28:36.523Z,9.61
2018-12-02T03:31:05.698Z,9.58
2018-12-02T03:33:33.721Z,9.62
2018-12-02T03:36:01.757Z,9.48
2018-12-02T03:38:29.774Z,9.90
2018-12-02T03:40:57.821Z,9.75
2018-12-02T03:43:25.858Z,10.24
2018-12-02T03:45:53.871Z,9.74
2018-12-02T03:48:21.910Z,9.90
2018-12-02T03:50:49.963Z,9.64
2018-12-02T03:53:17.969Z,9.87
2018-12-02T03:55:46.002Z,9.40
2018-12-02T03:58:14.022Z,9.90
2018-12-02T04:00:54.117Z,10.03
2018-12-02T04:03:22.139Z,9.73
2018-12-02T04:05:50.187Z,10.09
2018-12-02T04:08:18.215Z,9.72
2018-12-02T04:10:46.248Z,10.02
2018-12-02T04:13:14.285Z,9.93
2018-12-02T04:15:42.318Z,10.00
2018-12-02T04:18:10.370Z,9.93
2018-12-02T04:20:38.438Z,10.22
2018-12-02T04:23:06.640Z,10.87
2018-12-02T04:25:34.694Z,10.97
2018-12-02T04:28:02.738Z,10.95
2018-12-02T04:30:30.782Z,10.19
2018-12-02T04:32:58.860Z,10.13
2018-12-02T04:35:27.015Z,10.11
2018-12-02T04:37:55.092Z,9.99
2018-12-02T04:40:23.104Z,9.63
2018-12-02T04:42:51.147Z,10.65
2018-12-02T04:45:19.985Z,10.52
2018-12-02T04:47:48.341Z,10.34
2018-12-02T04:50:18.975Z,10.15
2018-12-02T04:52:47.000Z,9.98
2018-12-02T04:55:15.102Z,10.03
2018-12-02T04:57:43.158Z,10.14
2018-12-02T05:00:20.553Z,10.74
2018-12-02T05:02:51.399Z,10.60
2018-12-02T05:05:20.352Z,10.26
2018-12-02T05:07:48.412Z,10.21
2018-12-02T05:10:17.312Z,10.28
2018-12-02T05:12:45.370Z,10.18
2018-12-02T05:15:14.311Z,10.35
2018-12-02T05:17:42.337Z,11.09
2018-12-02T05:20:18.962Z,10.73
2018-12-02T05:22:47.111Z,9.90
2018-12-02T05:25:17.885Z,10.03
2018-12-02T05:27:43.843Z,10.67
2018-12-02T05:30:17.698Z,10.63
2018-12-02T05:32:46.523Z,10.68
2018-12-02T05:35:14.860Z,9.79
2018-12-02T05:37:42.905Z,10.22
2018-12-02T05:40:11.929Z,9.90
2018-12-02T05:42:40.003Z,10.00
2018-12-02T05:45:09.633Z,9.76
2018-12-02T05:47:37.683Z,10.07
2018-12-02T05:50:09.504Z,10.14
2018-12-02T05:52:37.561Z,10.03
2018-12-02T05:55:06.561Z,10.31
2018-12-02T05:57:34.597Z,9.91
2018-12-02T06:00:02.631Z,9.88
2018-12-02T06:02:30.669Z,10.04
2018-12-02T06:04:58.716Z,10.18
2018-12-02T06:07:26.744Z,10.15
2018-12-02T06:09:54.758Z,10.05
2018-12-02T06:12:22.783Z,9.98
2018-12-02T06:14:50.828Z,10.00
2018-12-02T06:17:18.859Z,10.54
2018-12-02T06:19:47.023Z,10.24
2018-12-02T06:22:15.058Z,10.62
2018-12-02T06:24:43.089Z,10.55
2018-12-02T06:27:11.124Z,10.35
2018-12-02T06:29:39.141Z,10.32
2018-12-02T06:32:07.178Z,10.36
2018-12-02T06:34:35.268Z,10.27
2018-12-02T06:37:03.350Z,10.64
2018-12-02T06:39:31.496Z,10.68
2018-12-02T06:41:59.530Z,10.74
2018-12-02T06:44:27.987Z,10.07
2018-12-02T06:46:56.035Z,9.87
2018-12-02T06:49:24.079Z,10.24
2018-12-02T06:51:52.130Z,10.31
2018-12-02T06:54:20.204Z,10.87
2018-12-02T06:56:48.238Z,10.77
2018-12-02T06:59:48.416Z,11.84
2018-12-02T07:03:10.287Z,10.01
2018-12-02T07:05:38.528Z,11.20
2018-12-02T07:08:06.631Z,11.30
2018-12-02T07:10:34.717Z,11.41
2018-12-02T07:13:02.767Z,11.72
2018-12-02T07:15:30.839Z,11.49
2018-12-02T07:17:58.943Z,11.85
2018-12-02T07:20:27.126Z,11.56
2018-12-02T07:22:55.153Z,11.88
2018-12-02T07:25:23.735Z,12.05
2018-12-02T07:27:51.892Z,11.47
2018-12-02T07:30:24.906Z,11.38
2018-12-02T07:32:48.110Z,11.26
2018-12-02T07:35:16.169Z,10.98
2018-12-02T07:37:47.902Z,11.26
2018-12-02T07:40:19.883Z,11.00
2018-12-02T07:42:48.465Z,11.40
2018-12-02T07:45:16.498Z,10.71
2018-12-02T07:47:44.568Z,10.72
2018-12-02T07:50:12.627Z,11.26
2018-12-02T07:52:40.677Z,10.96
2018-12-02T07:55:09.318Z,11.03
2018-12-02T07:57:38.567Z,10.78
2018-12-02T08:00:12.509Z,10.69
2018-12-02T08:02:40.676Z,10.90
2018-12-02T08:05:10.954Z,10.24
2018-12-02T08:07:39.053Z,11.11
2018-12-02T08:10:11.421Z,10.43
2018-12-02T08:12:39.522Z,11.23
2018-12-02T08:15:10.909Z,11.04
2018-12-02T08:17:39.134Z,10.90
2018-12-02T08:20:13.449Z,10.84
2018-12-02T08:22:41.635Z,11.05
2018-12-02T08:25:11.781Z,10.95
2018-12-02T08:27:40.017Z,11.11
2018-12-02T08:30:17.871Z,10.67
2018-12-02T08:32:45.938Z,11.00
2018-12-02T08:35:14.932Z,11.06
2018-12-02T08:37:43.956Z,10.93
2018-12-02T08:40:12.581Z,11.38
2018-12-02T08:42:40.739Z,11.70
2018-12-02T08:45:13.773Z,11.27
2018-12-02T08:47:42.493Z,11.73
2018-12-02T08:50:13.536Z,11.70
2018-12-02T08:52:41.593Z,11.46
2018-12-02T08:55:10.761Z,12.05
2018-12-02T08:57:38.819Z,12.16
2018-12-02T09:00:10.198Z,11.40
2018-12-02T09:02:38.265Z,11.17
2018-12-02T09:05:08.397Z,11.53
2018-12-02T09:07:36.451Z,11.26
2018-12-02T09:10:09.985Z,12.00
2018-12-02T09:12:38.039Z,12.02
2018-12-02T09:15:08.466Z,11.80
2018-12-02T09:17:36.584Z,11.70
2018-12-02T09:20:09.477Z,11.99
2018-12-02T09:22:37.591Z,12.47
2018-12-02T09:25:06.014Z,12.42
2018-12-02T09:27:34.102Z,12.25
2018-12-02T09:30:02.150Z,12.16
2018-12-02T09:32:30.255Z,12.00
2018-12-02T09:34:58.306Z,12.44
2018-12-02T09:37:26.381Z,12.78
2018-12-02T09:39:54.453Z,12.78
2018-12-02T09:42:22.513Z,12.48
2018-12-02T09:44:50.546Z,12.99
2018-12-02T09:47:18.612Z,12.68
2018-12-02T09:49:46.693Z,12.31
2018-12-02T09:52:14.761Z,12.03
2018-12-02T09:54:42.797Z,12.02
2018-12-02T09:57:10.854Z,12.20
2018-12-02T09:59:38.918Z,12.33
2018-12-02T10:02:07.458Z,12.26
2018-12-02T10:04:35.503Z,12.23
2018-12-02T10:07:03.580Z,12.70
2018-12-02T10:09:31.643Z,12.96
2018-12-02T10:11:59.744Z,12.83
2018-12-02T10:14:27.778Z,12.40
2018-12-02T10:16:56.285Z,12.78
2018-12-02T10:19:24.423Z,12.52
2018-12-02T10:21:52.764Z,12.53
2018-12-02T10:24:20.865Z,12.83
2018-12-02T10:26:48.923Z,13.08
2018-12-02T10:29:16.967Z,13.31
2018-12-02T10:31:45.029Z,13.03
2018-12-02T10:34:13.110Z,12.73
2018-12-02T10:36:41.170Z,13.13
2018-12-02T10:39:09.951Z,13.39
2018-12-02T10:41:37.994Z,13.22
2018-12-02T10:44:06.318Z,12.71
2018-12-02T10:46:34.425Z,12.89
2018-12-02T10:49:02.815Z,12.69
2018-12-02T10:51:30.927Z,12.73
2018-12-02T10:53:58.982Z,12.97
2018-12-02T10:56:27.083Z,12.40
2018-12-02T10:58:55.192Z,12.68
2018-12-02T11:01:28.528Z,12.39
2018-12-02T11:03:56.585Z,12.67
2018-12-02T11:06:24.686Z,13.34
2018-12-02T11:08:52.752Z,13.18
2018-12-02T11:11:20.910Z,13.51
2018-12-02T11:13:48.970Z,13.24
2018-12-02T11:16:17.169Z,13.98
2018-12-02T11:18:45.215Z,14.12
2018-12-02T11:21:13.259Z,13.59
2018-12-02T11:23:41.281Z,12.71
2018-12-02T11:26:09.342Z,12.96
2018-12-02T11:28:37.433Z,13.01
2018-12-02T11:31:05.811Z,12.78
2018-12-02T11:33:33.909Z,13.15
2018-12-02T11:36:02.016Z,13.18
2018-12-02T11:38:30.122Z,13.65
2018-12-02T11:40:58.162Z,13.05
2018-12-02T11:43:26.250Z,13.63
2018-12-02T11:45:54.316Z,13.66
2018-12-02T11:48:23.262Z,13.65
2018-12-02T11:50:51.338Z,14.33
2018-12-02T11:53:19.381Z,13.30
2018-12-02T11:55:47.507Z,13.55
2018-12-02T11:58:15.635Z,13.31
2018-12-02T12:00:43.687Z,12.99
2018-12-02T12:03:11.776Z,13.75
2018-12-02T12:05:39.911Z,14.07
2018-12-02T12:08:09.242Z,13.21
2018-12-02T12:10:37.350Z,13.25
2018-12-02T12:13:05.553Z,13.59
2018-12-02T12:15:33.750Z,13.99
2018-12-02T12:18:01.823Z,13.72
2018-12-02T12:20:31.021Z,13.88
2018-12-02T12:23:00.059Z,14.15
2018-12-02T12:25:28.244Z,13.34
2018-12-02T12:27:57.104Z,13.23
2018-12-02T12:30:26.128Z,13.86
2018-12-02T12:32:54.453Z,13.39
2018-12-02T12:35:22.922Z,13.55
2018-12-02T12:37:50.980Z,13.74
2018-12-02T12:40:21.094Z,13.54
2018-12-02T12:42:50.806Z,14.27
2018-12-02T12:45:18.857Z,13.69
2018-12-02T12:47:46.882Z,13.43
2018-12-02T12:50:15.692Z,14.43
2018-12-02T12:52:44.135Z,14.04
2018-12-02T12:55:13.154Z,14.57
2018-12-02T12:57:41.187Z,14.13
2018-12-02T13:00:11.853Z,14.13
2018-12-02T13:02:40.425Z,14.21
2018-12-02T13:05:10.320Z,14.05
2018-12-02T13:07:38.346Z,13.84
2018-12-02T13:10:09.331Z,13.71
2018-12-02T13:12:37.476Z,14.31
2018-12-02T13:15:08.802Z,13.88
2018-12-02T13:17:36.837Z,14.15
2018-12-02T13:20:07.889Z,13.53
2018-12-02T13:22:35.929Z,14.47
2018-12-02T13:25:04.129Z,14.16
2018-12-02T13:27:32.183Z,13.95
2018-12-02T13:30:00.219Z,13.69
2018-12-02T13:32:28.275Z,14.17
2018-12-02T13:34:56.313Z,14.33
2018-12-02T13:37:24.369Z,13.85
2018-12-02T13:39:52.403Z,13.93
2018-12-02T13:42:20.466Z,14.23
2018-12-02T13:44:48.503Z,14.24
2018-12-02T13:47:16.558Z,14.18
2018-12-02T13:49:44.585Z,14.45
2018-12-02T13:52:12.654Z,14.46
2018-12-02T13:54:40.703Z,14.38
2018-12-02T13:57:08.755Z,14.48
2018-12-02T13:59:36.850Z,14.19
2018-12-02T14:02:05.270Z,13.96
2018-12-02T14:04:33.336Z,13.94
2018-12-02T14:07:01.374Z,14.09
2018-12-02T14:09:29.430Z,14.51
2018-12-02T14:11:57.482Z,14.72
2018-12-02T14:14:25.593Z,14.10
2018-12-02T14:17:03.114Z,14.22
2018-12-02T14:19:34.333Z,14.83
2018-12-02T14:21:59.213Z,14.83
2018-12-02T14:24:27.237Z,14.72
2018-12-02T14:26:55.337Z,14.54
2018-12-02T14:29:26.634Z,15.15
2018-12-02T14:31:57.369Z,15.37
2018-12-02T14:34:25.414Z,14.82
2018-12-02T14:36:53.457Z,14.78
2018-12-02T14:39:21.502Z,14.53
2018-12-02T14:41:49.571Z,14.77
2018-12-02T14:44:17.608Z,15.10
2018-12-02T14:46:45.661Z,15.42
2018-12-02T14:49:13.698Z,15.60
2018-12-02T14:51:41.752Z,15.43
2018-12-02T14:54:09.789Z,15.49
2018-12-02T14:56:37.891Z,15.18
2018-12-02T14:59:05.894Z,15.30
2018-12-02T15:01:33.945Z,14.60
2018-12-02T15:04:01.990Z,15.43
2018-12-02T15:06:30.146Z,15.27
2018-12-02T15:08:58.173Z,15.76
2018-12-02T15:11:26.218Z,16.17
2018-12-02T15:13:54.262Z,15.57
2018-12-02T15:16:22.290Z,15.27
2018-12-02T15:18:50.320Z,15.36
2018-12-02T15:21:18.386Z,15.82
2018-12-02T15:23:46.555Z,15.02
2018-12-02T15:26:14.603Z,14.74
2018-12-02T15:28:42.638Z,15.63
2018-12-02T15:31:10.673Z,14.96
2018-12-02T15:33:39.393Z,15.14
2018-12-02T15:36:07.454Z,15.38
2018-12-02T15:38:35.508Z,15.06
2018-12-02T15:41:03.557Z,15.20
2018-12-02T15:43:31.600Z,15.36
2018-12-02T15:45:59.664Z,15.36
2018-12-02T15:48:27.721Z,16.08
2018-12-02T15:50:55.842Z,15.30
2018-12-02T15:53:23.890Z,15.21
2018-12-02T15:55:51.967Z,15.01
2018-12-02T15:58:20.217Z,16.15
2018-12-02T16:00:48.469Z,15.76
2018-12-02T16:03:16.506Z,15.28
2018-12-02T16:05:44.539Z,15.66
2018-12-02T16:08:12.576Z,15.94
2018-12-02T16:10:40.607Z,15.07
2018-12-02T16:13:10.095Z,15.19
2018-12-02T16:15:38.162Z,14.77
2018-12-02T16:18:07.886Z,15.67
2018-12-02T16:20:40.017Z,16.07
2018-12-02T16:23:08.100Z,15.56
2018-12-02T16:25:36.130Z,15.41
2018-12-02T16:28:04.187Z,15.28
2018-12-02T16:30:38.601Z,15.19
2018-12-02T16:33:06.645Z,15.53
2018-12-02T16:35:35.047Z,15.25
2018-12-02T16:38:03.106Z,15.19
2018-12-02T16:40:31.147Z,15.03
2018-12-02T16:42:59.187Z,15.29
2018-12-02T16:45:27.322Z,15.11
2018-12-02T16:47:56.438Z,15.58
2018-12-02T16:50:28.754Z,15.07
2018-12-02T16:52:58.011Z,15.57
2018-12-02T16:55:27.735Z,15.84
2018-12-02T16:58:02.211Z,15.31
2018-12-02T17:00:33.733Z,15.68
2018-12-02T17:03:01.779Z,15.81
2018-12-02T17:05:29.820Z,15.60
2018-12-02T17:07:57.859Z,15.59
2018-12-02T17:10:25.926Z,15.29
2018-12-02T17:12:53.957Z,15.29
2018-12-02T17:15:22.042Z,14.81
2018-12-02T17:17:50.083Z,15.12
2018-12-02T17:20:18.120Z,15.23
2018-12-02T17:22:46.543Z,15.51
2018-12-02T17:25:14.911Z,15.12
2018-12-02T17:27:44.581Z,15.40
2018-12-02T17:30:48.405Z,15.03
2018-12-02T17:33:16.646Z,14.85
2018-12-02T17:35:44.686Z,15.10
2018-12-02T17:38:12.757Z,15.51
2018-12-02T17:40:40.801Z,15.46
2018-12-02T17:43:10.631Z,15.06
2018-12-02T17:45:38.677Z,15.29
2018-12-02T17:48:06.908Z,15.71
2018-12-02T17:50:34.965Z,15.38
2018-12-02T17:53:03.002Z,14.91
2018-12-02T17:55:31.039Z,15.16
2018-12-02T17:57:59.082Z,15.83
2018-12-02T18:00:28.078Z,15.31
2018-12-02T18:02:58.529Z,15.52
2018-12-02T18:05:28.331Z,15.42
2018-12-02T18:07:56.371Z,15.76
2018-12-02T18:10:24.401Z,15.98
2018-12-02T18:12:52.699Z,16.13
2018-12-02T18:15:20.770Z,16.26
2018-12-02T18:17:48.797Z,15.42
2018-12-02T18:20:17.774Z,14.93
2018-12-02T18:22:45.957Z,15.10
2018-12-02T18:25:15.229Z,16.16
2018-12-02T18:27:43.245Z,15.61
2018-12-02T18:30:18.672Z,15.49
2018-12-02T18:32:47.228Z,15.59
2018-12-02T18:35:27.650Z,15.59
2018-12-02T18:38:00.039Z,15.70
2018-12-02T18:40:28.103Z,16.06
2018-12-02T18:42:56.473Z,16.47
2018-12-02T18:45:24.666Z,15.63
2018-12-02T18:47:52.746Z,15.01
2018-12-02T18:50:20.857Z,15.52
2018-12-02T18:52:49.197Z,15.44
2018-12-02T18:55:17.260Z,15.36
2018-12-02T18:57:45.384Z,14.92
2018-12-02T19:00:20.014Z,15.33
2018-12-02T19:02:49.165Z,15.27
2018-12-02T19:05:17.384Z,15.32
2018-12-02T19:07:45.502Z,15.88
2018-12-02T19:10:18.276Z,16.29
2018-12-02T19:12:46.346Z,15.52
2018-12-02T19:15:15.153Z,15.83
2018-12-02T19:17:43.581Z,15.24
2018-12-02T19:20:17.161Z,15.23
2018-12-02T19:22:46.352Z,15.33
2018-12-02T19:25:15.993Z,15.41
2018-12-02T19:27:44.084Z,15.32
2018-12-02T19:30:13.574Z,14.84
2018-12-02T19:32:41.633Z,15.30
2018-12-02T19:35:29.135Z,15.09
2018-12-02T19:38:00.147Z,15.32
2018-12-02T19:40:28.192Z,14.52
2018-12-02T19:42:56.463Z,15.53
2018-12-02T19:45:24.671Z,15.39
2018-12-02T19:47:52.760Z,15.69
2018-12-02T19:50:20.809Z,15.90
2018-12-02T19:52:49.226Z,16.85
2018-12-02T19:55:17.278Z,15.02
2018-12-02T19:57:46.855Z,15.41
2018-12-02T20:00:22.460Z,15.50
2018-12-02T20:02:50.512Z,15.68
2018-12-02T20:05:18.536Z,15.40
2018-12-02T20:07:49.262Z,15.30
2018-12-02T20:13:06.747Z,15.81
2018-12-02T20:15:34.799Z,15.36
2018-12-02T20:18:02.991Z,15.85
2018-12-02T20:20:39.012Z,15.68
2018-12-02T20:23:07.320Z,16.03
2018-12-02T20:25:35.432Z,15.58
2018-12-02T20:28:04.469Z,15.90
2018-12-02T20:30:33.667Z,15.03
2018-12-02T20:33:01.877Z,15.84
2018-12-02T20:35:30.042Z,15.94
2018-12-02T20:37:58.088Z,15.68
2018-12-02T20:40:26.387Z,15.22
2018-12-02T20:42:54.455Z,15.88
2018-12-02T20:45:22.510Z,15.57
2018-12-02T20:47:50.561Z,15.98
2018-12-02T20:50:19.078Z,16.17
2018-12-02T20:52:47.695Z,16.62
2018-12-02T20:55:18.851Z,15.28
2018-12-02T20:57:47.137Z,15.26
2018-12-02T21:00:19.744Z,15.98
2018-12-02T21:02:51.550Z,15.28
2018-12-02T21:05:27.153Z,16.15
2018-12-02T21:07:55.206Z,15.64
2018-12-02T21:10:23.262Z,15.44
2018-12-02T21:12:51.403Z,15.58
2018-12-02T21:15:20.455Z,15.30
2018-12-02T21:17:48.593Z,15.55
2018-12-02T21:20:16.640Z,15.03
2018-12-02T21:22:44.722Z,14.95
2018-12-02T21:25:15.347Z,14.76
2018-12-02T21:27:44.418Z,14.81
2018-12-02T21:30:14.835Z,15.04
2018-12-02T21:32:42.901Z,14.62
2018-12-02T21:35:11.009Z,14.84
2018-12-02T21:37:39.082Z,14.46
2018-12-02T21:40:11.373Z,14.92
2018-12-02T21:42:39.422Z,14.37
2018-12-02T21:45:11.412Z,14.71
2018-12-02T21:47:41.011Z,14.73
2018-12-02T21:50:11.913Z,15.32
2018-12-02T21:52:40.108Z,15.11
2018-12-02T21:55:08.500Z,14.56
2018-12-02T21:57:36.812Z,15.16
2018-12-02T22:00:14.510Z,15.15
2018-12-02T22:02:43.206Z,14.76
2018-12-02T22:05:11.247Z,15.97
2018-12-02T22:10:13.431Z,15.13
2018-12-02T22:12:41.519Z,15.26
2018-12-02T22:15:10.310Z,14.73
2018-12-02T22:17:38.399Z,14.37
2018-12-02T22:20:09.805Z,14.55
2018-12-02T22:22:37.890Z,14.37
2018-12-02T22:25:07.983Z,14.46
2018-12-02T22:27:36.035Z,14.23
2018-12-02T22:30:04.511Z,14.69
2018-12-02T22:32:32.545Z,14.88
2018-12-02T22:35:00.590Z,14.71
2018-12-02T22:37:28.621Z,15.17
2018-12-02T22:39:56.688Z,14.61
2018-12-02T22:42:24.759Z,15.40
2018-12-02T22:44:54.261Z,15.16
2018-12-02T22:47:22.298Z,15.04
2018-12-02T22:49:50.405Z,15.41
2018-12-02T22:52:18.475Z,15.25
2018-12-02T22:54:46.546Z,15.55
2018-12-02T22:57:14.596Z,15.28
2018-12-02T22:59:42.638Z,15.26
2018-12-02T23:02:17.564Z,14.77
2018-12-02T23:04:45.688Z,15.34
2018-12-02T23:07:13.742Z,14.95
2018-12-02T23:09:41.829Z,15.11
2018-12-02T23:12:09.862Z,15.43
2018-12-02T23:14:38.025Z,16.05
2018-12-02T23:17:21.122Z,16.01
2018-12-02T23:19:49.174Z,16.23
2018-12-02T23:22:17.229Z,15.95
2018-12-02T23:24:45.272Z,16.54
2018-12-02T23:27:13.313Z,16.66
2018-12-02T23:29:41.365Z,17.16
2018-12-02T23:32:09.409Z,17.15
2018-12-02T23:34:37.469Z,16.25
2018-12-02T23:37:05.599Z,16.75
2018-12-02T23:39:33.637Z,17.14
2018-12-02T23:42:01.690Z,17.36
2018-12-02T23:44:29.746Z,17.36
2018-12-02T23:46:57.820Z,17.28
2018-12-02T23:49:25.851Z,17.33
2018-12-02T23:51:53.909Z,17.23
2018-12-02T23:54:21.955Z,17.12
2018-12-02T23:56:49.994Z,17.10
2018-12-02T23:59:18.025Z,17.23
